Time;durP1;ratioP1;P1;durP2;ratioP2;P2;SDS_P1;SDS_P2;PMS_P1;PMS_P2;Temp;Humidity;BMP_temperature;BMP_pressure;BME280_temperature;BME280_humidity;BME280_pressure;Samples;Min_cycle;Max_cycle;Signal;HPM_P1;HPM_P2
2023/01/06 00:01:30;;;;;;;3.30;1.82;;;9.60;93.60;;;;;;1890638;76;21456;-56
2023/01/06 00:04:01;;;;;;;4.42;2.37;;;9.60;93.70;;;;;;1890631;76;21089;-56
2023/01/06 00:06:31;;;;;;;3.58;2.40;;;9.60;93.60;;;;;;1890721;76;21028;-55
2023/01/06 00:09:02;;;;;;;4.28;2.58;;;9.60;93.60;;;;;;1890631;76;21091;-56
2023/01/06 00:11:32;;;;;;;3.98;2.95;;;9.60;93.50;;;;;;1890744;76;21013;-55
2023/01/06 00:14:02;;;;;;;2.65;1.92;;;9.60;93.50;;;;;;1890588;76;21109;-56
2023/01/06 00:16:31;;;;;;;6.95;3.30;;;9.60;93.50;;;;;;1890538;76;21017;-56
2023/01/06 00:19:00;;;;;;;4.55;2.85;;;9.60;93.40;;;;;;1890573;76;21476;-56
2023/01/06 00:21:29;;;;;;;7.37;2.50;;;9.60;93.20;;;;;;1890642;76;21016;-56
2023/01/06 00:23:58;;;;;;;3.62;2.60;;;9.60;93.20;;;;;;1890560;76;21564;-55
2023/01/06 00:26:27;;;;;;;4.72;2.25;;;9.60;93.20;;;;;;1890557;76;21665;-56
2023/01/06 00:28:56;;;;;;;2.83;2.27;;;9.50;93.40;;;;;;1890700;76;21448;-56
2023/01/06 00:31:27;;;;;;;5.75;2.70;;;9.50;93.60;;;;;;1890711;76;21058;-57
2023/01/06 00:33:57;;;;;;;4.95;3.20;;;9.50;93.60;;;;;;1890605;76;21252;-56
2023/01/06 00:36:26;;;;;;;5.55;3.35;;;9.40;94.00;;;;;;1890605;76;21099;-56
2023/01/06 00:38:56;;;;;;;3.72;2.27;;;9.40;93.80;;;;;;1890529;76;21169;-55
2023/01/06 00:44:12;;;;;;;4.62;3.17;;;9.40;94.00;;;;;;1890720;76;21186;-56
2023/01/06 00:46:42;;;;;;;3.65;2.12;;;9.40;94.10;;;;;;1890707;76;21060;-55
2023/01/06 00:49:11;;;;;;;3.10;1.82;;;9.40;93.70;;;;;;1890654;76;21082;-56
2023/01/06 00:51:41;;;;;;;3.35;2.37;;;9.40;93.30;;;;;;1890806;76;21147;-57
2023/01/06 00:54:12;;;;;;;2.37;1.92;;;9.40;93.20;;;;;;1890663;76;21013;-56
2023/01/06 00:56:43;;;;;;;3.17;2.17;;;9.40;93.10;;;;;;1890784;76;21078;-56
2023/01/06 00:59:15;;;;;;;4.03;2.20;;;9.40;93.20;;;;;;1890718;76;21147;-56
2023/01/06 01:01:46;;;;;;;2.85;1.82;;;9.40;93.20;;;;;;1890722;76;21151;-54
2023/01/06 01:04:16;;;;;;;5.87;2.75;;;9.30;93.20;;;;;;1890598;76;21095;-54
2023/01/06 01:06:46;;;;;;;2.35;1.95;;;9.30;93.30;;;;;;1890664;76;21126;-56
2023/01/06 01:09:23;;;;;;;2.10;1.72;;;9.30;93.40;;;;;;1890581;76;21230;-56
2023/01/06 01:14:48;;;;;;;1.75;1.52;;;9.30;93.10;;;;;;1890640;76;21052;-55
2023/01/06 01:17:20;;;;;;;1.70;1.30;;;9.30;92.80;;;;;;1890681;76;21117;-56
2023/01/06 01:19:51;;;;;;;3.35;1.92;;;9.40;92.70;;;;;;1890605;76;21021;-55
2023/01/06 01:22:20;;;;;;;5.85;2.15;;;9.40;92.50;;;;;;1890716;76;21041;-56
2023/01/06 01:24:49;;;;;;;3.80;2.33;;;9.40;92.80;;;;;;1890582;76;21021;-55
2023/01/06 01:27:19;;;;;;;3.90;2.52;;;9.40;92.60;;;;;;1890641;76;21077;-57
2023/01/06 01:29:48;;;;;;;3.45;2.20;;;9.40;92.60;;;;;;1890534;76;21109;-57
2023/01/06 01:32:17;;;;;;;2.65;1.47;;;9.40;92.60;;;;;;1890715;76;21021;-56
2023/01/06 01:34:46;;;;;;;3.90;2.20;;;9.30;92.70;;;;;;1890554;76;21119;-56
2023/01/06 01:37:15;;;;;;;3.20;2.00;;;9.30;92.70;;;;;;1890645;76;21020;-56
2023/01/06 01:39:44;;;;;;;2.92;2.45;;;9.30;92.70;;;;;;1890577;76;21099;-56
2023/01/06 01:42:17;;;;;;;3.20;2.12;;;9.30;92.70;;;;;;1890660;76;21526;-56
2023/01/06 01:44:54;;;;;;;6.17;2.85;;;9.30;92.70;;;;;;1890569;76;21107;-56
2023/01/06 01:47:38;;;;;;;7.00;3.42;;;9.40;92.80;;;;;;1890539;76;20997;-55
2023/01/06 01:50:30;;;;;;;4.40;2.45;;;9.40;92.90;;;;;;1890590;76;21060;-56
2023/01/06 01:53:02;;;;;;;6.85;2.75;;;9.40;93.00;;;;;;1890559;75;21208;-56
2023/01/06 01:55:32;;;;;;;5.40;2.80;;;9.40;92.90;;;;;;1889020;76;21166;-56
2023/01/06 01:58:09;;;;;;;3.65;2.77;;;9.40;92.80;;;;;;1890554;76;21112;-56
2023/01/06 02:00:42;;;;;;;3.72;2.72;;;9.40;92.80;;;;;;1890660;76;21081;-56
2023/01/06 02:03:13;;;;;;;3.60;2.75;;;9.40;92.90;;;;;;1890675;76;21045;-57
2023/01/06 02:05:45;;;;;;;5.65;3.62;;;9.40;93.00;;;;;;1890557;76;21033;-55
2023/01/06 02:08:29;;;;;;;4.75;3.00;;;9.40;93.10;;;;;;1890684;76;21117;-57
2023/01/06 02:10:58;;;;;;;6.97;4.17;;;9.40;93.20;;;;;;1890426;76;21025;-55
2023/01/06 02:13:28;;;;;;;5.90;3.72;;;9.40;93.10;;;;;;1890631;76;21162;-56
2023/01/06 02:16:00;;;;;;;3.92;3.20;;;9.40;93.30;;;;;;1890597;76;21138;-56
2023/01/06 02:18:41;;;;;;;6.50;4.30;;;9.40;93.40;;;;;;1890335;76;21082;-55
2023/01/06 02:21:28;;;;;;;7.42;3.30;;;9.40;93.40;;;;;;1890381;76;21200;-56
2023/01/06 02:24:26;;;;;;;7.10;3.70;;;9.40;93.40;;;;;;1891881;76;21032;-55
2023/01/06 02:27:15;;;;;;;5.55;3.62;;;9.40;93.50;;;;;;1890485;76;21579;-56
2023/01/06 02:30:02;;;;;;;8.23;4.17;;;9.40;93.50;;;;;;1890732;76;21048;-56
2023/01/06 02:32:38;;;;;;;5.03;3.10;;;9.40;93.70;;;;;;1890663;76;21600;-55
2023/01/06 02:35:25;;;;;;;7.92;3.80;;;9.50;93.60;;;;;;1890693;76;21244;-56
2023/01/06 02:38:06;;;;;;;7.37;4.00;;;9.50;93.70;;;;;;1890722;76;21415;-55
2023/01/06 02:40:53;;;;;;;6.92;3.65;;;9.50;93.70;;;;;;1890643;76;21713;-56
2023/01/06 02:43:57;;;;;;;10.28;4.17;;;9.50;93.60;;;;;;1890676;76;21204;-55
2023/01/06 02:46:47;;;;;;;6.80;4.40;;;9.50;93.60;;;;;;1890752;76;21076;-55
2023/01/06 02:49:38;;;;;;;6.42;4.58;;;9.50;93.60;;;;;;1890772;76;21606;-56
2023/01/06 02:52:25;;;;;;;7.03;4.50;;;9.50;93.70;;;;;;1890203;76;21036;-56
2023/01/06 02:55:09;;;;;;;4.92;2.75;;;9.50;93.70;;;;;;1890043;76;21148;-56
2023/01/06 02:57:47;;;;;;;7.78;3.50;;;9.50;93.80;;;;;;1855610;76;21159;-56
2023/01/06 03:00:28;;;;;;;7.92;4.05;;;9.50;93.80;;;;;;1846167;76;21081;-55
2023/01/06 03:03:12;;;;;;;5.72;3.87;;;9.50;93.80;;;;;;1890477;75;21491;-56
2023/01/06 03:05:43;;;;;;;6.70;4.05;;;9.50;93.70;;;;;;1890741;76;21005;-56
2023/01/06 03:08:15;;;;;;;9.13;4.95;;;9.50;93.90;;;;;;1890793;76;21445;-55
2023/01/06 03:10:47;;;;;;;9.50;4.78;;;9.50;93.90;;;;;;1890806;76;21052;-56
2023/01/06 03:13:25;;;;;;;4.90;3.00;;;9.50;93.90;;;;;;1890621;74;21119;-56
2023/01/06 03:15:56;;;;;;;9.73;6.08;;;9.50;94.00;;;;;;1890535;76;21091;-55
2023/01/06 03:18:25;;;;;;;10.78;6.58;;;9.50;94.00;;;;;;1890745;76;21226;-55
2023/01/06 03:20:58;;;;;;;6.83;4.87;;;9.60;93.90;;;;;;1890666;76;21151;-57
2023/01/06 03:23:27;;;;;;;10.53;6.40;;;9.60;94.10;;;;;;1890640;76;21488;-56
2023/01/06 03:25:56;;;;;;;9.23;6.17;;;9.50;94.00;;;;;;1890597;76;21239;-56
2023/01/06 03:28:26;;;;;;;7.42;5.60;;;9.60;94.10;;;;;;1890619;76;21215;-56
2023/01/06 03:31:07;;;;;;;9.65;6.30;;;9.60;94.20;;;;;;1890652;76;21359;-56
2023/01/06 03:34:12;;;;;;;10.45;5.95;;;9.60;94.20;;;;;;1890387;76;21062;-56
2023/01/06 03:36:47;;;;;;;11.20;7.25;;;9.60;94.30;;;;;;1890281;76;21121;-55
2023/01/06 03:39:19;;;;;;;12.43;7.80;;;9.60;94.30;;;;;;1888597;76;21632;-56
2023/01/06 03:44:48;;;;;;;10.00;6.45;;;9.60;94.40;;;;;;1890641;76;21195;-56
2023/01/06 03:47:19;;;;;;;10.20;7.28;;;9.60;94.50;;;;;;1890146;76;21684;-57
2023/01/06 03:49:57;;;;;;;10.45;6.67;;;9.60;94.60;;;;;;1886079;76;21495;-56
2023/01/06 03:52:31;;;;;;;8.08;5.85;;;9.70;94.60;;;;;;1890105;76;21095;-56
2023/01/06 03:55:07;;;;;;;13.22;8.83;;;9.70;94.70;;;;;;1890734;76;21188;-56
2023/01/06 03:57:42;;;;;;;14.30;7.87;;;9.70;94.60;;;;;;1890597;76;21253;-57
2023/01/06 04:00:18;;;;;;;11.25;7.53;;;9.70;94.70;;;;;;1890668;76;21105;-56
2023/01/06 04:02:49;;;;;;;10.50;6.72;;;9.70;94.70;;;;;;1890337;76;21234;-56
2023/01/06 04:05:22;;;;;;;11.18;7.28;;;9.70;95.00;;;;;;1890653;76;21111;-56
2023/01/06 04:07:52;;;;;;;15.18;8.88;;;9.80;95.00;;;;;;1890613;76;21207;-56
2023/01/06 04:10:25;;;;;;;12.37;7.12;;;9.70;95.10;;;;;;1890780;76;21259;-56
2023/01/06 04:12:55;;;;;;;13.78;8.65;;;9.80;95.20;;;;;;1890560;76;21219;-55
2023/01/06 04:15:30;;;;;;;13.32;7.35;;;9.70;95.00;;;;;;1890635;76;21342;-56
2023/01/06 04:18:00;;;;;;;12.60;6.80;;;9.80;95.60;;;;;;1890519;76;21402;-55
2023/01/06 04:20:31;;;;;;;13.13;8.10;;;9.70;95.80;;;;;;1890480;76;21355;-57
2023/01/06 04:23:04;;;;;;;9.70;7.35;;;9.70;95.70;;;;;;1890534;76;21243;-56
2023/01/06 04:25:35;;;;;;;13.98;9.25;;;9.70;95.80;;;;;;1890562;74;21322;-56
2023/01/06 04:28:06;;;;;;;13.32;8.13;;;9.70;95.60;;;;;;1890534;76;21406;-55
2023/01/06 04:30:35;;;;;;;10.60;7.60;;;9.80;95.90;;;;;;1890677;76;21372;-55
2023/01/06 04:33:04;;;;;;;11.03;7.80;;;9.80;95.50;;;;;;1890680;76;21580;-56
2023/01/06 04:35:34;;;;;;;14.53;8.80;;;9.80;95.80;;;;;;1890617;76;21336;-55
2023/01/06 04:38:03;;;;;;;13.05;8.93;;;9.80;95.40;;;;;;1890688;76;21398;-56
2023/01/06 04:40:32;;;;;;;13.32;8.38;;;9.80;95.50;;;;;;1890575;76;21179;-56
2023/01/06 04:43:04;;;;;;;12.07;8.43;;;9.80;95.80;;;;;;1890606;76;21272;-56
2023/01/06 04:45:35;;;;;;;13.75;8.63;;;9.80;95.80;;;;;;1890681;76;21347;-56
2023/01/06 04:48:04;;;;;;;13.70;7.65;;;9.80;95.80;;;;;;1872563;76;21188;-57
2023/01/06 04:50:34;;;;;;;4.45;3.65;;;9.80;96.10;;;;;;1871638;77;21172;-56
2023/01/06 04:53:04;;;;;;;10.08;5.55;;;9.80;96.30;;;;;;1871475;77;21279;-56
2023/01/06 04:55:33;;;;;;;5.22;3.33;;;9.80;96.00;;;;;;1871462;77;21088;-56
2023/01/06 04:58:02;;;;;;;6.42;4.62;;;9.70;95.60;;;;;;1871542;77;21242;-56
2023/01/06 05:00:32;;;;;;;4.72;2.75;;;9.80;95.90;;;;;;1871575;77;21439;-56
2023/01/06 05:03:01;;;;;;;6.42;5.20;;;9.80;96.00;;;;;;1871608;77;21230;-56
2023/01/06 05:05:30;;;;;;;6.35;4.22;;;9.80;95.90;;;;;;1871496;77;21191;-56
2023/01/06 05:07:59;;;;;;;7.97;5.47;;;9.80;96.20;;;;;;1871393;77;21644;-56
2023/01/06 05:10:28;;;;;;;10.95;6.10;;;9.90;96.20;;;;;;1871506;77;21152;-56
2023/01/06 05:12:57;;;;;;;10.23;6.67;;;9.90;96.00;;;;;;1871493;77;21240;-57
2023/01/06 05:15:26;;;;;;;8.55;5.87;;;9.90;96.10;;;;;;1871496;77;21593;-57
2023/01/06 05:17:55;;;;;;;8.65;4.37;;;9.90;96.40;;;;;;1871425;77;21785;-55
2023/01/06 05:20:24;;;;;;;8.35;3.98;;;9.80;96.20;;;;;;1871395;75;21260;-56
2023/01/06 05:22:53;;;;;;;1.85;1.42;;;9.90;96.30;;;;;;1871418;77;21316;-56
2023/01/06 05:25:22;;;;;;;4.62;3.08;;;9.80;94.70;;;;;;1871490;77;21596;-57
2023/01/06 05:27:51;;;;;;;6.90;4.15;;;9.80;95.20;;;;;;1871571;77;21200;-57
2023/01/06 05:30:21;;;;;;;3.25;1.27;;;9.80;95.30;;;;;;1871591;77;21204;-56
2023/01/06 05:32:49;;;;;;;1.55;1.05;;;9.70;95.30;;;;;;1871374;77;21286;-56
2023/01/06 05:35:19;;;;;;;3.45;1.87;;;9.60;95.40;;;;;;1871438;77;21204;-56
2023/01/06 05:37:48;;;;;;;6.40;1.77;;;9.60;95.50;;;;;;1871541;77;21394;-57
2023/01/06 05:40:17;;;;;;;1.80;1.15;;;9.50;95.40;;;;;;1871590;77;21376;-57
2023/01/06 05:42:46;;;;;;;2.55;1.20;;;9.40;95.10;;;;;;1871464;77;21370;-57
2023/01/06 05:45:16;;;;;;;3.42;1.32;;;9.40;95.10;;;;;;1871478;77;21273;-56
2023/01/06 05:47:45;;;;;;;2.22;1.37;;;9.30;95.00;;;;;;1871486;76;21256;-56
2023/01/06 05:50:14;;;;;;;2.67;1.72;;;9.30;95.10;;;;;;1871596;77;21225;-57
2023/01/06 05:52:43;;;;;;;3.75;1.60;;;9.30;95.10;;;;;;1871455;77;21228;-56
2023/01/06 05:55:12;;;;;;;4.78;3.10;;;9.20;95.10;;;;;;1871372;77;21204;-57
2023/01/06 05:57:41;;;;;;;2.77;2.12;;;9.20;95.20;;;;;;1871455;77;21148;-56
2023/01/06 06:00:11;;;;;;;2.17;1.65;;;9.20;95.20;;;;;;1871399;77;21167;-56
2023/01/06 06:02:43;;;;;;;2.35;1.72;;;9.20;95.30;;;;;;1871519;77;21228;-57
2023/01/06 06:05:11;;;;;;;4.60;2.12;;;9.20;95.30;;;;;;1871438;77;21151;-56
2023/01/06 06:07:40;;;;;;;2.65;1.77;;;9.10;95.30;;;;;;1871417;77;21151;-56
2023/01/06 06:10:10;;;;;;;2.17;1.67;;;9.20;95.40;;;;;;1871505;77;21225;-56
2023/01/06 06:12:38;;;;;;;2.55;1.72;;;9.20;95.50;;;;;;1871426;77;21172;-55
2023/01/06 06:15:08;;;;;;;2.52;1.80;;;9.20;95.50;;;;;;1871539;77;21233;-56
2023/01/06 06:17:37;;;;;;;1.95;1.52;;;9.20;95.50;;;;;;1871574;77;21183;-56
2023/01/06 06:20:07;;;;;;;2.25;1.60;;;9.20;95.40;;;;;;1871494;77;21132;-56
2023/01/06 06:22:36;;;;;;;3.20;1.60;;;9.20;95.50;;;;;;1871460;77;21207;-57
2023/01/06 06:25:07;;;;;;;3.05;2.02;;;9.20;95.40;;;;;;1871582;77;21747;-57
2023/01/06 06:27:37;;;;;;;3.92;2.22;;;9.20;95.50;;;;;;1871536;77;21212;-57
2023/01/06 06:30:07;;;;;;;3.65;2.55;;;9.30;95.30;;;;;;1871500;77;21083;-57
2023/01/06 06:32:36;;;;;;;4.37;2.52;;;9.30;95.40;;;;;;1871455;77;21268;-56
2023/01/06 06:35:06;;;;;;;5.22;2.35;;;9.30;95.30;;;;;;1871420;76;21187;-57
2023/01/06 06:37:35;;;;;;;4.10;2.35;;;9.30;95.20;;;;;;1871441;75;21222;-56
2023/01/06 06:40:05;;;;;;;4.33;2.77;;;9.30;95.30;;;;;;1871485;77;21210;-56
2023/01/06 06:42:34;;;;;;;5.97;3.02;;;9.30;95.30;;;;;;1871441;77;21669;-57
2023/01/06 06:45:03;;;;;;;4.05;3.00;;;9.30;95.20;;;;;;1871453;77;21100;-55
2023/01/06 06:47:32;;;;;;;4.55;2.15;;;9.30;95.20;;;;;;1874576;76;21257;-56
2023/01/06 06:50:02;;;;;;;6.55;3.27;;;9.30;95.20;;;;;;1892274;76;21308;-56
2023/01/06 06:52:31;;;;;;;4.45;3.25;;;9.40;95.20;;;;;;1890546;76;21251;-56
2023/01/06 06:55:00;;;;;;;5.30;3.35;;;9.40;95.30;;;;;;1890352;76;21289;-56
2023/01/06 06:57:29;;;;;;;4.03;3.05;;;9.40;95.20;;;;;;1890394;76;21230;-57
2023/01/06 06:59:58;;;;;;;7.05;4.30;;;9.40;95.20;;;;;;1890447;76;21149;-57
2023/01/06 07:02:27;;;;;;;4.42;3.45;;;9.40;95.20;;;;;;1890356;76;21853;-56
2023/01/06 07:04:56;;;;;;;7.17;4.00;;;9.50;95.20;;;;;;1890487;76;21085;-56
2023/01/06 07:07:26;;;;;;;5.58;4.78;;;9.50;95.00;;;;;;1890411;76;21194;-56
2023/01/06 07:09:55;;;;;;;5.95;3.27;;;9.50;95.00;;;;;;1890403;76;21272;-56
2023/01/06 07:12:25;;;;;;;3.77;2.65;;;9.50;94.90;;;;;;1890439;76;21154;-55
2023/01/06 07:14:55;;;;;;;8.15;3.75;;;9.50;94.90;;;;;;1890444;76;21130;-57
2023/01/06 07:17:30;;;;;;;7.15;3.27;;;9.50;94.90;;;;;;1889412;76;21669;-57
2023/01/06 07:19:59;;;;;;;7.05;3.42;;;9.60;94.90;;;;;;1890577;76;21114;-56
2023/01/06 07:22:28;;;;;;;8.60;3.10;;;9.60;94.80;;;;;;1890572;76;21190;-56
2023/01/06 07:24:57;;;;;;;6.10;4.22;;;9.60;94.90;;;;;;1890542;76;21219;-56
2023/01/06 07:27:26;;;;;;;7.28;4.37;;;9.70;94.80;;;;;;1890557;76;21125;-57
2023/01/06 07:29:56;;;;;;;7.47;4.60;;;9.70;94.80;;;;;;1890751;76;21146;-56
2023/01/06 07:32:25;;;;;;;8.28;5.00;;;9.70;94.80;;;;;;1890545;76;21162;-57
2023/01/06 07:34:54;;;;;;;9.58;5.10;;;9.70;94.80;;;;;;1890508;76;21239;-56
2023/01/06 07:37:23;;;;;;;8.98;5.25;;;9.70;94.80;;;;;;1890539;76;21069;-57
2023/01/06 07:39:52;;;;;;;7.17;4.45;;;9.70;94.80;;;;;;1890603;76;21161;-57
2023/01/06 07:42:21;;;;;;;8.45;5.22;;;9.70;94.80;;;;;;1890670;76;21150;-56
2023/01/06 07:44:50;;;;;;;7.87;4.50;;;9.70;94.80;;;;;;1890797;75;21230;-55
2023/01/06 07:47:20;;;;;;;8.83;4.90;;;9.80;94.80;;;;;;1890621;76;21177;-56
2023/01/06 07:49:49;;;;;;;5.87;4.10;;;9.80;94.80;;;;;;1874452;76;21358;-56
2023/01/06 07:52:18;;;;;;;5.80;3.80;;;9.80;94.80;;;;;;1871640;77;21119;-55
2023/01/06 07:54:47;;;;;;;8.68;5.53;;;9.80;94.80;;;;;;1871567;75;21150;-56
2023/01/06 07:57:16;;;;;;;7.53;4.67;;;9.80;94.80;;;;;;1871545;77;21012;-56
2023/01/06 07:59:45;;;;;;;5.42;3.92;;;9.90;94.90;;;;;;1871549;77;21212;-56
2023/01/06 08:02:14;;;;;;;5.78;4.08;;;9.80;94.80;;;;;;1871643;77;21100;-56
2023/01/06 08:04:44;;;;;;;13.88;8.48;;;9.90;94.80;;;;;;1871495;77;21155;-56
2023/01/06 08:07:16;;;;;;;7.08;3.95;;;9.90;94.80;;;;;;1871452;77;21248;-57
2023/01/06 08:09:45;;;;;;;3.52;2.62;;;9.90;94.80;;;;;;1868396;77;21155;-56
2023/01/06 08:12:14;;;;;;;4.15;2.75;;;9.90;94.70;;;;;;1871512;77;21195;-56
2023/01/06 08:14:43;;;;;;;3.87;2.92;;;9.90;94.70;;;;;;1871483;77;21156;-56
2023/01/06 08:17:12;;;;;;;4.12;3.05;;;9.90;94.70;;;;;;1871521;77;21128;-56
2023/01/06 08:19:41;;;;;;;10.18;9.18;;;9.90;94.80;;;;;;1871657;77;21104;-57
2023/01/06 08:22:10;;;;;;;14.60;8.88;;;10.00;94.80;;;;;;1871498;77;21154;-56
2023/01/06 08:24:39;;;;;;;4.65;3.20;;;10.00;94.90;;;;;;1871609;77;21326;-56
2023/01/06 08:27:08;;;;;;;2.60;2.40;;;10.00;94.80;;;;;;1871526;75;21068;-56
2023/01/06 08:29:37;;;;;;;5.67;3.90;;;10.00;94.80;;;;;;1871472;77;21248;-57
2023/01/06 08:32:06;;;;;;;6.62;3.70;;;10.00;94.70;;;;;;1871513;77;21071;-56
2023/01/06 08:34:35;;;;;;;7.80;3.70;;;10.00;94.80;;;;;;1871641;77;21148;-56
2023/01/06 08:37:04;;;;;;;4.65;2.87;;;10.00;94.80;;;;;;1871480;77;21224;-56
2023/01/06 08:39:33;;;;;;;6.53;2.77;;;10.00;94.60;;;;;;1871545;77;21101;-56
2023/01/06 08:42:03;;;;;;;5.97;3.27;;;10.00;94.80;;;;;;1871530;77;21007;-57
2023/01/06 08:44:32;;;;;;;4.37;3.02;;;10.10;94.80;;;;;;1871478;75;21267;-57
2023/01/06 08:47:01;;;;;;;5.00;3.25;;;10.10;94.70;;;;;;1871608;77;21182;-56
2023/01/06 08:49:30;;;;;;;4.35;3.25;;;10.10;94.70;;;;;;1880423;76;21117;-55
2023/01/06 08:52:00;;;;;;;6.65;3.47;;;10.10;94.70;;;;;;1890495;75;21271;-56
2023/01/06 08:54:30;;;;;;;10.40;6.15;;;10.10;94.80;;;;;;1890419;76;21285;-56
2023/01/06 08:56:59;;;;;;;5.12;3.45;;;10.10;94.70;;;;;;1890499;76;21147;-56
2023/01/06 08:59:29;;;;;;;5.30;2.72;;;10.10;94.70;;;;;;1890460;76;21159;-56
2023/01/06 09:01:58;;;;;;;4.33;3.08;;;10.10;94.70;;;;;;1890427;76;21625;-54
2023/01/06 09:04:27;;;;;;;5.55;2.80;;;10.10;94.70;;;;;;1890529;74;21256;-57
2023/01/06 09:06:57;;;;;;;5.33;3.30;;;10.10;94.70;;;;;;1890529;76;21163;-57
2023/01/06 09:09:26;;;;;;;3.72;2.92;;;10.10;94.70;;;;;;1890502;76;21702;-56
2023/01/06 09:11:56;;;;;;;4.05;2.55;;;10.10;94.70;;;;;;1890460;76;21154;-56
2023/01/06 09:14:26;;;;;;;4.65;2.75;;;10.10;94.60;;;;;;1890528;76;21157;-55
2023/01/06 09:16:55;;;;;;;6.22;3.62;;;10.20;94.70;;;;;;1890511;76;21253;-57
2023/01/06 09:19:24;;;;;;;3.90;2.83;;;10.10;94.60;;;;;;1890433;76;21863;-56
2023/01/06 09:21:53;;;;;;;9.30;4.97;;;10.10;94.60;;;;;;1890490;76;21228;-56
2023/01/06 09:24:22;;;;;;;8.73;4.70;;;10.20;94.50;;;;;;1890591;76;21508;-56
2023/01/06 09:26:51;;;;;;;7.35;4.03;;;10.10;94.50;;;;;;1890462;75;21232;-56
2023/01/06 09:29:20;;;;;;;7.80;3.72;;;10.10;94.60;;;;;;1890358;76;21222;-56
2023/01/06 09:31:50;;;;;;;6.05;3.27;;;10.10;94.60;;;;;;1890579;76;21239;-55
2023/01/06 09:34:19;;;;;;;5.62;3.90;;;10.20;94.60;;;;;;1890570;76;21406;-56
2023/01/06 09:36:48;;;;;;;7.72;3.90;;;10.20;94.50;;;;;;1890452;76;21212;-56
2023/01/06 09:39:17;;;;;;;6.75;4.33;;;10.20;94.50;;;;;;1890487;76;21082;-57
2023/01/06 09:42:06;;;;;;;4.87;2.85;;;10.20;94.50;;;;;;1890449;76;21292;-56
2023/01/06 09:44:38;;;;;;;6.03;3.80;;;10.20;94.50;;;;;;1890516;76;21650;-56
2023/01/06 09:47:09;;;;;;;5.62;3.45;;;10.20;94.40;;;;;;1889595;76;21167;-56
2023/01/06 09:49:44;;;;;;;5.72;3.75;;;10.30;94.50;;;;;;1890499;75;21648;-56
2023/01/06 09:52:18;;;;;;;4.90;3.50;;;10.30;94.40;;;;;;1890422;76;21110;-56
2023/01/06 09:55:08;;;;;;;5.17;3.20;;;10.30;94.40;;;;;;1890038;76;21571;-57
2023/01/06 09:57:45;;;;;;;5.37;3.95;;;10.30;94.40;;;;;;1889632;76;21088;-56
2023/01/06 10:00:40;;;;;;;5.75;3.87;;;10.30;94.30;;;;;;1887945;76;21105;-57
2023/01/06 10:03:14;;;;;;;7.65;4.33;;;10.40;94.40;;;;;;1890557;76;21189;-56
2023/01/06 10:06:07;;;;;;;11.18;5.25;;;10.40;94.20;;;;;;1890702;76;21021;-57
2023/01/06 10:08:58;;;;;;;7.72;4.08;;;10.40;94.20;;;;;;1888835;76;21155;-57
2023/01/06 10:11:46;;;;;;;6.40;4.62;;;10.50;94.10;;;;;;1890597;76;21175;-57
2023/01/06 10:14:17;;;;;;;9.40;4.78;;;10.50;94.20;;;;;;1889670;76;21057;-57
2023/01/06 10:16:52;;;;;;;9.33;4.80;;;10.50;94.20;;;;;;1890133;75;21060;-57
2023/01/06 10:19:29;;;;;;;5.95;4.05;;;10.60;94.30;;;;;;1890694;76;21093;-57
2023/01/06 10:22:11;;;;;;;8.18;3.87;;;10.60;94.20;;;;;;1867966;76;21197;-56
2023/01/06 10:25:01;;;;;;;11.68;4.50;;;10.60;94.00;;;;;;1890047;76;21145;-57
2023/01/06 10:27:39;;;;;;;8.10;4.50;;;10.70;94.00;;;;;;1890593;76;21064;-57
2023/01/06 10:30:29;;;;;;;5.17;4.12;;;10.70;94.10;;;;;;1889450;76;21174;-57
2023/01/06 10:32:58;;;;;;;8.30;4.33;;;10.70;94.10;;;;;;1890529;76;21098;-56
2023/01/06 10:35:28;;;;;;;7.40;4.92;;;10.80;93.90;;;;;;1890510;76;21131;-56
2023/01/06 10:37:58;;;;;;;7.17;4.45;;;10.80;93.60;;;;;;1890463;76;21101;-56
2023/01/06 10:40:29;;;;;;;7.62;4.50;;;10.80;93.70;;;;;;1890468;76;21162;-57
2023/01/06 10:43:07;;;;;;;8.88;7.70;;;10.80;93.60;;;;;;1890483;76;21074;-57
2023/01/06 10:45:38;;;;;;;9.00;4.97;;;10.90;93.90;;;;;;1890381;75;21159;-56
2023/01/06 10:48:16;;;;;;;7.97;4.80;;;10.90;93.50;;;;;;1890363;76;21040;-56
2023/01/06 10:50:45;;;;;;;6.33;4.35;;;10.90;93.70;;;;;;1890409;76;21109;-56
2023/01/06 10:53:15;;;;;;;8.88;4.90;;;10.90;93.60;;;;;;1890526;76;21147;-57
2023/01/06 10:55:55;;;;;;;6.47;4.70;;;10.90;93.60;;;;;;1890561;76;21037;-56
2023/01/06 10:58:39;;;;;;;11.85;7.10;;;11.00;93.30;;;;;;1890608;76;21545;-57
2023/01/06 11:01:10;;;;;;;11.12;6.33;;;11.00;93.20;;;;;;1890344;76;21097;-56
2023/01/06 11:03:41;;;;;;;7.40;4.35;;;10.90;93.40;;;;;;1890726;76;21080;-57
2023/01/06 11:06:27;;;;;;;8.63;5.37;;;10.90;93.20;;;;;;1890563;76;21287;-56
2023/01/06 11:08:58;;;;;;;10.40;5.55;;;10.90;93.40;;;;;;1890606;76;21077;-57
2023/01/06 11:11:27;;;;;;;7.87;4.65;;;10.90;92.80;;;;;;1890585;76;20997;-57
2023/01/06 11:13:59;;;;;;;7.12;4.80;;;10.90;92.90;;;;;;1890741;76;21150;-55
2023/01/06 11:16:36;;;;;;;10.80;6.30;;;10.90;92.90;;;;;;1889444;76;21052;-56
2023/01/06 11:19:08;;;;;;;13.53;9.23;;;10.80;92.70;;;;;;1890532;76;21065;-56
2023/01/06 11:21:43;;;;;;;10.58;5.42;;;10.90;93.00;;;;;;1890546;75;21118;-56
2023/01/06 11:24:24;;;;;;;10.93;6.42;;;10.90;92.80;;;;;;1890685;76;21117;-56
2023/01/06 11:26:56;;;;;;;11.95;6.87;;;10.90;92.80;;;;;;1890641;76;21239;-57
2023/01/06 11:29:31;;;;;;;7.70;5.00;;;10.90;92.90;;;;;;1890593;76;21099;-57
2023/01/06 11:32:00;;;;;;;;;;;10.90;92.80;;;;;;1893544;75;21084;-57
2023/01/06 11:34:30;;;;;;;8.40;5.85;;;10.90;92.80;;;;;;1890591;75;20092;-57
2023/01/06 11:36:59;;;;;;;9.43;4.95;;;10.90;92.40;;;;;;1890572;76;21041;-56
2023/01/06 11:39:35;;;;;;;8.08;4.65;;;10.90;92.50;;;;;;1890609;76;21119;-57
2023/01/06 11:42:12;;;;;;;9.80;5.45;;;10.90;92.40;;;;;;1890657;76;21431;-57
2023/01/06 11:44:42;;;;;;;8.93;4.87;;;11.00;92.50;;;;;;1890723;76;21091;-56
2023/01/06 11:47:21;;;;;;;6.10;4.28;;;11.00;92.40;;;;;;1890560;76;21028;-57
2023/01/06 11:49:56;;;;;;;5.12;3.47;;;11.00;91.50;;;;;;1890593;76;21140;-57
2023/01/06 11:52:30;;;;;;;5.85;4.05;;;11.10;91.80;;;;;;1890798;76;21122;-57
2023/01/06 11:55:12;;;;;;;6.80;4.17;;;11.10;91.60;;;;;;1890670;76;21127;-56
2023/01/06 11:57:56;;;;;;;8.65;3.90;;;11.20;91.00;;;;;;1890710;76;21115;-57
2023/01/06 12:00:40;;;;;;;6.92;3.47;;;11.20;90.80;;;;;;1890548;76;21091;-56
2023/01/06 12:03:27;;;;;;;8.80;4.28;;;11.20;91.20;;;;;;1890601;76;21040;-56
2023/01/06 12:06:23;;;;;;;5.72;3.62;;;11.20;91.20;;;;;;1890481;75;21001;-56
2023/01/06 12:08:55;;;;;;;5.17;4.22;;;11.20;91.10;;;;;;1890660;75;21123;-58
2023/01/06 12:11:48;;;;;;;4.03;3.50;;;11.20;91.00;;;;;;1890542;76;21501;-56
2023/01/06 12:14:23;;;;;;;6.95;3.60;;;11.20;91.10;;;;;;1890592;76;21045;-56
2023/01/06 12:17:13;;;;;;;5.78;3.95;;;11.20;90.80;;;;;;1890727;76;21013;-56
2023/01/06 12:19:51;;;;;;;6.62;3.75;;;11.10;90.70;;;;;;1884975;76;21495;-56
2023/01/06 12:22:35;;;;;;;8.60;4.17;;;11.10;90.70;;;;;;1890658;76;21094;-56
2023/01/06 12:25:06;;;;;;;5.80;2.95;;;11.00;91.00;;;;;;1889954;76;21001;-57
2023/01/06 12:27:41;;;;;;;6.65;2.95;;;10.90;90.20;;;;;;1890613;76;21057;-57
2023/01/06 12:30:13;;;;;;;5.75;4.37;;;10.90;90.20;;;;;;1890699;76;21440;-56
2023/01/06 12:32:45;;;;;;;6.72;3.67;;;10.90;90.50;;;;;;1890258;76;21156;-57
2023/01/06 12:35:17;;;;;;;4.33;2.67;;;10.90;90.40;;;;;;1890519;76;21012;-58
2023/01/06 12:37:54;;;;;;;2.62;2.25;;;10.80;89.90;;;;;;1890740;76;21005;-57
2023/01/06 12:40:41;;;;;;;6.58;3.58;;;10.80;89.70;;;;;;1889273;76;21103;-57
2023/01/06 12:43:16;;;;;;;4.92;3.15;;;10.80;90.20;;;;;;1890229;76;21096;-57
2023/01/06 12:46:06;;;;;;;3.33;2.15;;;10.70;89.90;;;;;;1890740;76;21640;-57
2023/01/06 12:48:47;;;;;;;3.35;2.80;;;10.80;89.00;;;;;;1890555;76;21009;-56
2023/01/06 12:51:30;;;;;;;2.05;1.57;;;10.70;89.60;;;;;;1886216;76;21052;-55
2023/01/06 12:54:19;;;;;;;5.20;2.83;;;10.70;87.60;;;;;;1871570;77;21031;-56
2023/01/06 12:57:10;;;;;;;4.05;1.90;;;10.60;87.90;;;;;;1871580;77;21074;-57
2023/01/06 13:00:04;;;;;;;3.42;2.40;;;10.50;88.50;;;;;;1871578;77;21066;-57
2023/01/06 13:02:49;;;;;;;4.25;2.42;;;10.40;88.80;;;;;;1871689;77;21047;-57
2023/01/06 13:05:26;;;;;;;4.20;3.10;;;10.40;89.40;;;;;;1871517;77;21051;-56
2023/01/06 13:08:27;;;;;;;3.52;2.33;;;10.30;89.80;;;;;;1871564;77;21114;-57
2023/01/06 13:11:33;;;;;;;4.92;2.02;;;10.30;90.00;;;;;;1870259;77;21035;-56
2023/01/06 13:14:18;;;;;;;2.37;1.80;;;10.30;89.50;;;;;;1871571;77;21048;-56
2023/01/06 13:16:52;;;;;;;;;;;10.30;89.20;;;;;;1874319;77;21478;-56
2023/01/06 13:19:49;;;;;;;2.47;2.22;;;10.20;88.10;;;;;;1871593;77;20108;-56
2023/01/06 13:22:21;;;;;;;4.78;2.60;;;10.20;88.10;;;;;;1871542;76;21059;-57
2023/01/06 13:25:02;;;;;;;5.72;2.75;;;10.10;88.70;;;;;;1871662;77;21564;-55
2023/01/06 13:27:33;;;;;;;6.53;2.70;;;10.00;88.70;;;;;;1871477;75;21093;-55
2023/01/06 13:30:30;;;;;;;7.03;4.05;;;10.00;89.50;;;;;;1871277;77;21048;-57
2023/01/06 13:33:18;;;;;;;4.12;2.40;;;10.00;89.10;;;;;;1870620;77;21027;-56
2023/01/06 13:36:14;;;;;;;5.55;2.55;;;9.90;89.20;;;;;;1870427;77;21019;-56